Time;durP1;ratioP1;P1;durP2;ratioP2;P2;SDS_P1;SDS_P2;PMS_P1;PMS_P2;Temp;Humidity;BMP_temperature;BMP_pressure;BME280_temperature;BME280_humidity;BME280_pressure;Samples;Min_cycle;Max_cycle;Signal;HPM_P1;HPM_P2
2023/08/02 00:03:59;;;;;;;5.32;2.65;;;14.20;99.90;;;;;;8453282;28;20372;-79
2023/08/02 00:07:59;;;;;;;5.53;2.83;;;14.20;99.90;;;;;;8447140;28;20021;-79
2023/08/02 00:12:00;;;;;;;4.32;2.40;;;14.20;99.90;;;;;;8428386;28;20106;-79
2023/08/02 00:16:01;;;;;;;6.38;3.13;;;14.20;99.90;;;;;;8429651;28;20042;-78
2023/08/02 00:20:01;;;;;;;5.13;2.70;;;14.10;99.90;;;;;;8424198;28;20027;-78
2023/08/02 00:24:02;;;;;;;5.00;3.08;;;14.10;99.90;;;;;;8417607;28;20115;-79
2023/08/02 00:28:03;;;;;;;4.15;3.10;;;14.00;99.90;;;;;;8428195;28;20423;-79
2023/08/02 00:32:03;;;;;;;4.82;3.33;;;14.00;99.90;;;;;;8446918;28;20035;-78
2023/08/02 00:36:04;;;;;;;5.05;3.72;;;14.10;99.90;;;;;;8431473;28;20081;-78
2023/08/02 00:40:05;;;;;;;7.38;4.15;;;14.20;99.90;;;;;;8439837;28;20031;-78
2023/08/02 00:44:06;;;;;;;7.45;3.35;;;14.00;99.90;;;;;;8434376;28;20110;-77
2023/08/02 00:48:06;;;;;;;6.13;3.75;;;14.00;99.90;;;;;;8430619;28;20028;-79
2023/08/02 00:52:07;;;;;;;7.38;3.72;;;14.00;99.90;;;;;;8439031;28;20024;-78
2023/08/02 00:56:09;;;;;;;8.77;3.72;;;13.80;99.90;;;;;;8437774;28;20032;-77
2023/08/02 01:00:10;;;;;;;6.18;3.83;;;13.80;99.90;;;;;;8432124;28;20484;-79
2023/08/02 01:04:11;;;;;;;8.93;4.50;;;13.80;99.90;;;;;;8413356;28;20039;-79
2023/08/02 01:08:19;;;;;;;8.60;4.35;;;13.70;99.90;;;;;;8425872;28;20107;-78
2023/08/02 01:12:21;;;;;;;5.53;4.30;;;13.70;99.90;;;;;;8438198;28;20032;-78
2023/08/02 01:16:23;;;;;;;8.75;4.40;;;13.70;99.90;;;;;;8422206;28;20089;-79
2023/08/02 01:20:24;;;;;;;7.18;4.47;;;13.40;99.90;;;;;;8418615;28;20051;-78
2023/08/02 01:24:31;;;;;;;7.45;4.80;;;13.40;99.90;;;;;;8426511;28;20153;-79
2023/08/02 01:28:40;;;;;;;9.50;4.50;;;13.40;99.90;;;;;;8429343;28;20432;-78
2023/08/02 01:32:41;;;;;;;6.65;4.22;;;13.50;99.90;;;;;;8434098;28;20035;-78
2023/08/02 01:36:42;;;;;;;8.60;5.07;;;13.30;99.90;;;;;;8409233;28;20019;-78
2023/08/02 01:40:43;;;;;;;7.60;4.70;;;13.20;99.90;;;;;;8420961;28;20028;-79
2023/08/02 01:44:43;;;;;;;8.30;5.18;;;12.90;99.90;;;;;;8409589;28;20027;-79
2023/08/02 01:48:44;;;;;;;9.65;5.18;;;12.70;99.90;;;;;;8442573;28;20569;-78
2023/08/02 01:52:48;;;;;;;9.07;5.13;;;12.50;99.90;;;;;;8423286;28;20028;-78
2023/08/02 01:56:49;;;;;;;8.38;5.70;;;12.40;99.90;;;;;;8425540;28;20020;-78
2023/08/02 02:00:49;;;;;;;9.95;6.07;;;12.20;99.90;;;;;;8428858;28;20038;-78
2023/08/02 02:04:51;;;;;;;9.90;6.00;;;12.10;99.90;;;;;;8418014;28;20019;-78
2023/08/02 02:08:52;;;;;;;13.52;6.40;;;12.00;99.90;;;;;;8448579;28;20019;-78
2023/08/02 02:12:52;;;;;;;11.55;6.45;;;11.90;99.90;;;;;;8439547;28;20048;-78
2023/08/02 02:16:53;;;;;;;14.23;6.78;;;11.90;99.90;;;;;;8419565;28;20019;-78
2023/08/02 02:20:53;;;;;;;9.02;6.18;;;11.90;99.90;;;;;;8431613;28;20111;-79
2023/08/02 02:24:54;;;;;;;10.55;5.95;;;11.90;99.90;;;;;;8450808;28;20027;-78
2023/08/02 02:28:54;;;;;;;14.75;7.03;;;11.80;99.90;;;;;;8455366;28;20019;-77
2023/08/02 02:32:55;;;;;;;11.07;6.70;;;11.60;99.90;;;;;;8455614;28;20114;-78
2023/08/02 02:36:55;;;;;;;13.30;6.93;;;11.50;99.90;;;;;;8425039;28;20604;-78
2023/08/02 02:40:56;;;;;;;10.75;6.65;;;11.30;99.90;;;;;;8426257;28;20057;-78
2023/08/02 02:44:56;;;;;;;11.50;6.95;;;11.30;99.90;;;;;;8431896;28;20251;-78
2023/08/02 02:48:57;;;;;;;13.52;7.20;;;11.20;99.90;;;;;;8425990;28;20032;-78
2023/08/02 02:52:58;;;;;;;12.55;6.85;;;11.10;99.90;;;;;;8431825;28;20023;-79
2023/08/02 02:56:59;;;;;;;12.15;7.28;;;11.10;99.90;;;;;;8421873;28;20022;-78
2023/08/02 03:01:00;;;;;;;14.70;7.43;;;10.90;99.90;;;;;;8424644;28;20491;-78
2023/08/02 03:05:00;;;;;;;13.30;8.45;;;10.80;99.90;;;;;;8431017;28;20047;-79
2023/08/02 03:09:01;;;;;;;16.80;7.97;;;10.90;99.90;;;;;;8396610;28;20026;-78
2023/08/02 03:13:01;;;;;;;13.45;7.93;;;10.90;99.90;;;;;;8411072;28;20471;-78
2023/08/02 03:17:02;;;;;;;12.77;8.23;;;10.90;99.90;;;;;;8413047;28;20057;-78
2023/08/02 03:21:02;;;;;;;11.75;7.65;;;10.90;99.90;;;;;;8442194;28;20456;-79
2023/08/02 03:25:04;;;;;;;14.50;7.72;;;10.80;99.90;;;;;;8403344;28;20234;-78
2023/08/02 03:29:04;;;;;;;17.02;8.63;;;10.80;99.90;;;;;;8462748;28;20035;-78
2023/08/02 03:33:05;;;;;;;18.98;8.32;;;10.80;99.90;;;;;;8438133;28;20447;-79
2023/08/02 03:37:05;;;;;;;18.95;8.82;;;11.00;99.90;;;;;;8437714;28;20061;-79
2023/08/02 03:41:06;;;;;;;16.77;8.95;;;11.10;99.90;;;;;;8409000;28;20040;-79
2023/08/02 03:45:07;;;;;;;16.40;8.32;;;11.20;99.90;;;;;;8415801;28;20024;-78
2023/08/02 03:49:08;;;;;;;13.85;8.02;;;11.40;99.90;;;;;;8422362;28;20036;-79
2023/08/02 03:53:08;;;;;;;15.02;7.47;;;11.60;99.90;;;;;;8407117;28;20043;-79
2023/08/02 03:57:09;;;;;;;11.68;7.80;;;11.80;99.90;;;;;;8428628;28;20016;-78
2023/08/02 04:01:09;;;;;;;10.93;7.47;;;11.80;99.90;;;;;;8447011;28;20012;-79
2023/08/02 04:05:10;;;;;;;11.85;7.47;;;11.90;99.90;;;;;;8428788;28;20024;-79
2023/08/02 04:09:11;;;;;;;11.73;7.57;;;11.90;99.90;;;;;;8422966;28;20027;-80
2023/08/02 04:13:11;;;;;;;11.13;7.50;;;12.00;99.90;;;;;;8420920;28;20024;-79
2023/08/02 04:17:12;;;;;;;13.55;7.13;;;12.10;99.90;;;;;;8428364;28;20012;-79
2023/08/02 04:21:19;;;;;;;11.27;7.90;;;12.30;99.90;;;;;;8459600;28;20483;-80
2023/08/02 04:25:19;;;;;;;11.73;7.68;;;12.40;99.90;;;;;;8426361;28;20024;-79
2023/08/02 04:29:20;;;;;;;12.02;8.27;;;12.50;99.90;;;;;;8423747;28;20658;-79
2023/08/02 04:33:20;;;;;;;16.35;8.27;;;12.50;99.90;;;;;;8420831;28;20537;-80
2023/08/02 04:37:21;;;;;;;33.80;18.48;;;12.60;99.90;;;;;;8419053;28;20012;-80
2023/08/02 04:41:22;;;;;;;28.63;19.40;;;12.70;99.90;;;;;;8414359;28;20024;-78
2023/08/02 04:45:22;;;;;;;24.70;16.52;;;12.90;99.90;;;;;;8427834;28;20365;-79
2023/08/02 04:49:23;;;;;;;20.35;13.82;;;13.30;99.90;;;;;;8421761;28;20031;-79
2023/08/02 04:53:23;;;;;;;18.50;10.88;;;13.50;99.90;;;;;;8437824;28;20736;-80
2023/08/02 04:57:24;;;;;;;11.68;8.55;;;13.70;99.90;;;;;;8435217;28;20054;-79
2023/08/02 05:01:24;;;;;;;13.23;7.25;;;13.70;99.90;;;;;;8438267;28;20016;-78
2023/08/02 05:05:25;;;;;;;12.43;7.18;;;14.10;99.90;;;;;;8407519;28;20016;-80
2023/08/02 05:09:25;;;;;;;10.30;8.00;;;14.10;99.90;;;;;;8440494;28;20016;-78
2023/08/02 05:13:27;;;;;;;9.55;7.38;;;14.10;99.90;;;;;;8426297;28;20020;-79
2023/08/02 05:17:29;;;;;;;12.15;7.43;;;14.40;99.90;;;;;;8447059;28;20019;-80
2023/08/02 05:21:29;;;;;;;9.38;6.80;;;14.20;99.90;;;;;;8411358;28;20090;-78
2023/08/02 05:25:31;;;;;;;10.77;7.38;;;14.00;99.90;;;;;;8431922;28;20023;-80
2023/08/02 05:29:31;;;;;;;10.23;7.60;;;14.10;99.90;;;;;;8432937;28;20019;-79
2023/08/02 05:33:32;;;;;;;12.23;8.05;;;14.10;99.90;;;;;;8434685;28;20590;-79
2023/08/02 05:37:32;;;;;;;9.65;6.38;;;13.80;99.90;;;;;;8424175;28;20023;-78
2023/08/02 05:41:33;;;;;;;9.60;5.93;;;13.90;99.90;;;;;;8452557;28;20466;-78
2023/08/02 05:45:33;;;;;;;8.90;5.82;;;14.00;99.90;;;;;;8438367;28;20024;-79
2023/08/02 05:49:34;;;;;;;8.32;5.45;;;14.20;99.90;;;;;;8434099;28;20032;-79
2023/08/02 05:53:34;;;;;;;8.27;4.90;;;14.50;99.90;;;;;;8420501;28;20020;-79
2023/08/02 05:57:35;;;;;;;7.55;4.55;;;14.60;99.90;;;;;;8429871;28;20016;-80
2023/08/02 06:01:35;;;;;;;7.15;4.97;;;14.50;99.90;;;;;;8445202;28;20039;-78
2023/08/02 06:05:36;;;;;;;6.40;4.60;;;14.60;99.90;;;;;;8431501;28;20024;-79
2023/08/02 06:09:36;;;;;;;7.57;4.43;;;14.60;99.90;;;;;;8410964;28;20012;-79
2023/08/02 06:13:37;;;;;;;6.30;4.75;;;14.60;99.90;;;;;;8411612;28;20020;-79
2023/08/02 06:17:37;;;;;;;7.00;4.75;;;14.50;99.90;;;;;;8454874;28;20019;-79
2023/08/02 06:21:38;;;;;;;8.35;4.88;;;14.70;99.90;;;;;;8437171;28;20362;-78
2023/08/02 06:25:39;;;;;;;7.70;4.47;;;14.70;99.90;;;;;;8443065;28;20012;-81
2023/08/02 06:29:39;;;;;;;8.55;4.75;;;14.80;99.90;;;;;;8405580;28;20383;-78
2023/08/02 06:33:40;;;;;;;9.10;5.05;;;14.90;99.90;;;;;;8432062;28;20026;-77
2023/08/02 06:37:40;;;;;;;7.35;4.10;;;15.00;99.90;;;;;;8413490;28;20024;-79
2023/08/02 06:41:41;;;;;;;5.30;4.20;;;15.00;99.90;;;;;;8421177;28;20710;-78
2023/08/02 06:45:46;;;;;;;6.07;4.15;;;15.10;99.90;;;;;;8418263;28;20396;-79
2023/08/02 06:49:46;;;;;;;7.88;4.00;;;15.20;99.90;;;;;;8428634;28;20511;-79
2023/08/02 06:53:47;;;;;;;4.05;3.00;;;15.40;99.90;;;;;;8442558;28;20112;-78
2023/08/02 06:57:47;;;;;;;4.38;3.25;;;15.50;99.90;;;;;;8423923;28;20653;-80
2023/08/02 07:01:48;;;;;;;5.28;3.38;;;15.40;99.90;;;;;;8426065;28;20031;-78
2023/08/02 07:05:48;;;;;;;5.10;3.42;;;15.40;99.90;;;;;;8445410;28;20016;-78
2023/08/02 07:09:49;;;;;;;5.78;4.05;;;15.60;99.90;;;;;;8415121;28;20075;-80
2023/08/02 07:13:49;;;;;;;7.80;4.15;;;15.60;99.90;;;;;;8415230;28;20053;-79
2023/08/02 07:17:50;;;;;;;4.57;3.22;;;15.60;99.90;;;;;;8462293;28;20015;-79
2023/08/02 07:21:50;;;;;;;4.97;3.80;;;15.70;99.90;;;;;;8450268;28;20103;-78
2023/08/02 07:25:51;;;;;;;5.60;3.78;;;16.00;99.90;;;;;;8443734;28;20030;-80
2023/08/02 07:29:52;;;;;;;5.47;3.20;;;16.20;99.90;;;;;;8426119;28;20020;-80
2023/08/02 07:33:53;;;;;;;6.28;3.47;;;16.20;99.90;;;;;;8437669;28;20430;-80
2023/08/02 07:37:53;;;;;;;5.57;3.20;;;16.20;99.90;;;;;;8435905;28;20031;-80
2023/08/02 07:41:54;;;;;;;4.90;3.15;;;16.20;99.90;;;;;;8432798;28;20035;-80
2023/08/02 07:45:54;;;;;;;5.07;3.30;;;16.30;99.90;;;;;;8419022;28;20024;-79
2023/08/02 07:49:55;;;;;;;4.07;3.08;;;16.50;99.90;;;;;;8432139;28;20400;-81
2023/08/02 07:53:56;;;;;;;5.78;3.10;;;16.40;99.90;;;;;;8424074;28;20020;-80
2023/08/02 07:57:57;;;;;;;6.40;2.92;;;16.20;99.90;;;;;;8428284;28;20019;-80
2023/08/02 08:01:57;;;;;;;3.55;2.88;;;16.30;99.90;;;;;;8432731;28;20035;-80
2023/08/02 08:05:58;;;;;;;6.57;3.60;;;16.10;99.90;;;;;;8422174;28;20027;-80
2023/08/02 08:09:58;;;;;;;3.45;2.28;;;16.00;99.90;;;;;;8439177;28;20035;-80
2023/08/02 08:13:59;;;;;;;3.58;2.72;;;15.90;99.90;;;;;;8447964;28;20108;-81
2023/08/02 08:17:59;;;;;;;7.07;3.25;;;15.80;99.90;;;;;;8433513;28;20019;-81
2023/08/02 08:22:00;;;;;;;4.68;2.50;;;15.70;99.90;;;;;;8443619;28;20510;-80
2023/08/02 08:26:01;;;;;;;4.82;3.10;;;15.60;99.90;;;;;;8458399;28;20073;-81
2023/08/02 08:30:03;;;;;;;4.07;2.38;;;15.60;99.90;;;;;;8424672;28;20031;-80
2023/08/02 08:34:04;;;;;;;3.85;3.40;;;15.80;99.90;;;;;;8437815;28;20402;-80
2023/08/02 08:38:04;;;;;;;4.95;2.75;;;15.80;99.90;;;;;;8421080;28;20432;-80
2023/08/02 08:42:07;;;;;;;6.43;3.20;;;16.20;99.90;;;;;;8452281;28;20091;-81
2023/08/02 08:46:11;;;;;;;3.40;2.50;;;16.30;99.90;;;;;;8430704;28;20119;-79
2023/08/02 08:50:12;;;;;;;3.90;2.90;;;16.40;99.90;;;;;;8458189;28;20495;-78
2023/08/02 08:54:19;;;;;;;3.45;2.63;;;16.50;99.90;;;;;;8409615;28;20022;-79
2023/08/02 08:58:19;;;;;;;3.85;2.47;;;16.60;99.90;;;;;;8423545;28;20024;-78
2023/08/02 09:02:20;;;;;;;4.38;2.60;;;16.50;99.90;;;;;;8431589;28;20042;-79
2023/08/02 09:06:22;;;;;;;6.10;3.08;;;16.70;99.90;;;;;;8431829;28;20027;-78
2023/08/02 09:10:22;;;;;;;3.92;2.70;;;16.90;99.90;;;;;;8425109;28;20024;-78
2023/08/02 09:14:23;;;;;;;3.88;2.47;;;17.10;99.90;;;;;;8419386;28;20515;-78
2023/08/02 09:18:35;;;;;;;4.18;2.60;;;17.50;99.90;;;;;;8415283;28;20499;-78
2023/08/02 09:22:35;;;;;;;3.03;2.42;;;18.00;99.90;;;;;;8434688;28;20034;-78
2023/08/02 09:26:36;;;;;;;4.15;2.20;;;18.40;99.90;;;;;;8449373;28;20025;-77
2023/08/02 09:30:37;;;;;;;4.15;2.60;;;18.50;99.90;;;;;;8419077;28;20585;-77
2023/08/02 09:34:43;;;;;;;2.63;1.92;;;19.00;99.90;;;;;;8409042;28;20019;-78
2023/08/02 09:38:57;;;;;;;2.78;2.20;;;19.40;99.90;;;;;;8430967;28;20099;-78
2023/08/02 09:42:58;;;;;;;2.85;1.90;;;19.80;99.90;;;;;;8437375;28;20027;-78
2023/08/02 09:47:11;;;;;;;3.95;2.50;;;20.30;99.90;;;;;;8432024;28;20024;-78
2023/08/02 09:51:11;;;;;;;3.50;2.38;;;20.50;99.90;;;;;;8449751;28;21060;-78
2023/08/02 09:55:12;;;;;;;2.92;2.10;;;21.70;99.90;;;;;;8447513;28;20059;-78
2023/08/02 09:59:16;;;;;;;3.15;1.98;;;22.30;99.90;;;;;;8450304;28;20040;-78
2023/08/02 10:03:17;;;;;;;2.28;1.98;;;22.70;99.90;;;;;;8434899;28;20015;-78
2023/08/02 10:07:18;;;;;;;3.42;2.00;;;23.40;99.90;;;;;;8427831;28;20035;-78
2023/08/02 10:11:20;;;;;;;2.97;1.85;;;23.80;99.90;;;;;;8445484;28;20093;-78
2023/08/02 10:15:21;;;;;;;2.47;1.98;;;24.10;99.90;;;;;;8430020;28;20027;-79
2023/08/02 10:19:23;;;;;;;3.47;1.90;;;24.00;99.90;;;;;;8428237;28;20028;-78
2023/08/02 10:23:23;;;;;;;2.05;1.70;;;24.40;99.90;;;;;;8428122;28;20455;-78
2023/08/02 10:27:25;;;;;;;2.60;1.73;;;25.20;99.90;;;;;;8445471;28;20028;-78
2023/08/02 10:31:27;;;;;;;2.22;1.60;;;24.90;99.90;;;;;;8427994;28;20024;-79
2023/08/02 10:35:59;;;;;;;3.85;2.15;;;24.70;99.90;;;;;;8446439;28;20047;-79
2023/08/02 10:39:59;;;;;;;3.22;1.80;;;25.20;99.90;;;;;;8444211;28;20038;-79
2023/08/02 10:44:06;;;;;;;3.17;2.03;;;26.50;99.90;;;;;;8424184;28;20022;-80
2023/08/02 10:48:26;;;;;;;5.43;1.95;;;26.10;99.90;;;;;;8427279;28;20091;-78
2023/08/02 10:52:32;;;;;;;3.17;2.00;;;26.40;99.90;;;;;;8420571;28;20020;-79
2023/08/02 10:56:33;;;;;;;3.47;2.15;;;27.20;99.90;;;;;;8445509;28;20039;-79
2023/08/02 11:00:37;;;;;;;3.58;2.05;;;27.10;99.90;;;;;;8427649;28;20111;-79
2023/08/02 11:04:44;;;;;;;2.90;2.38;;;26.40;99.90;;;;;;8426215;28;20031;-79
2023/08/02 11:08:46;;;;;;;3.90;2.53;;;25.80;99.90;;;;;;8430605;28;20395;-79
2023/08/02 11:12:52;;;;;;;3.47;2.20;;;25.70;99.90;;;;;;8423797;28;20026;-78
2023/08/02 11:16:53;;;;;;;3.42;2.22;;;26.00;99.90;;;;;;8424121;28;20043;-79
2023/08/02 11:20:54;;;;;;;3.95;2.45;;;25.60;99.90;;;;;;8430268;28;20534;-79
2023/08/02 11:24:56;;;;;;;2.85;2.10;;;25.60;99.90;;;;;;8427564;28;20058;-79
2023/08/02 11:28:56;;;;;;;3.15;2.20;;;27.00;99.90;;;;;;8416569;28;20164;-79
2023/08/02 11:32:57;;;;;;;2.78;2.40;;;28.20;99.90;;;;;;8426837;28;20539;-79
2023/08/02 11:36:57;;;;;;;2.88;2.35;;;28.80;99.90;;;;;;8445271;28;20051;-79
2023/08/02 11:40:58;;;;;;;3.40;2.50;;;29.20;99.90;;;;;;8449312;28;20020;-79
2023/08/02 11:44:59;;;;;;;3.20;2.20;;;28.90;99.90;;;;;;8447328;28;20498;-79
2023/08/02 11:49:07;;;;;;;3.13;2.50;;;28.80;99.90;;;;;;8432321;28;20028;-79
2023/08/02 11:53:09;;;;;;;3.40;2.40;;;29.10;99.90;;;;;;8432391;28;20036;-80
2023/08/02 11:57:09;;;;;;;4.25;2.83;;;29.00;99.90;;;;;;8432264;28;20047;-80
2023/08/02 12:01:12;;;;;;;3.72;2.47;;;29.90;99.90;;;;;;8432039;28;20035;-80
2023/08/02 12:05:20;;;;;;;2.75;2.45;;;30.00;99.90;;;;;;8448218;28;20024;-79
2023/08/02 12:09:43;;;;;;;3.00;2.22;;;30.50;99.90;;;;;;8422731;28;20031;-80
2023/08/02 12:13:44;;;;;;;5.20;2.70;;;30.20;99.90;;;;;;8427851;28;20069;-79
2023/08/02 12:17:44;;;;;;;3.00;2.50;;;30.30;99.90;;;;;;8431383;28;20019;-80
2023/08/02 12:21:57;;;;;;;4.95;2.55;;;31.70;99.90;;;;;;8430951;28;20475;-80
2023/08/02 12:25:57;;;;;;;4.50;2.35;;;31.90;99.90;;;;;;8431701;28;20011;-80
2023/08/02 12:30:10;;;;;;;3.90;2.13;;;32.40;99.70;;;;;;8431004;28;20089;-80
2023/08/02 12:34:11;;;;;;;4.93;2.42;;;32.70;99.90;;;;;;8448314;28;20452;-80
2023/08/02 12:38:11;;;;;;;2.50;2.30;;;33.40;97.50;;;;;;8430108;28;20015;-80
2023/08/02 12:42:12;;;;;;;4.43;2.33;;;34.00;95.40;;;;;;8426268;28;20066;-81
2023/08/02 12:46:13;;;;;;;3.85;2.20;;;33.60;96.50;;;;;;8448040;28;20028;-80
2023/08/02 12:50:14;;;;;;;3.38;2.72;;;34.00;95.90;;;;;;8447133;28;20043;-79
2023/08/02 12:54:14;;;;;;;3.47;2.38;;;34.40;94.10;;;;;;8429709;28;20054;-81
2023/08/02 12:58:15;;;;;;;3.53;2.35;;;34.30;92.70;;;;;;8420126;28;20028;-81
2023/08/02 13:02:15;;;;;;;3.78;1.92;;;34.10;96.30;;;;;;8428362;28;20024;-79
2023/08/02 13:06:16;;;;;;;3.40;2.47;;;33.60;91.80;;;;;;8427878;28;20020;-80
2023/08/02 13:10:16;;;;;;;2.95;2.28;;;33.90;91.10;;;;;;8429262;28;20611;-79
2023/08/02 13:14:17;;;;;;;3.35;2.40;;;34.60;88.70;;;;;;8440244;28;20032;-79
2023/08/02 13:18:18;;;;;;;3.30;2.33;;;34.60;89.80;;;;;;8428196;28;20106;-80
2023/08/02 13:22:18;;;;;;;3.60;2.70;;;33.80;93.10;;;;;;8418779;28;20076;-79
2023/08/02 13:26:20;;;;;;;3.72;2.60;;;32.80;90.40;;;;;;8446635;28;20027;-80
2023/08/02 13:30:20;;;;;;;3.42;2.63;;;31.70;92.70;;;;;;8423592;28;20442;-77
2023/08/02 13:34:21;;;;;;;4.28;2.88;;;32.40;91.50;;;;;;8440484;28;20020;-79
2023/08/02 13:38:21;;;;;;;3.05;2.40;;;34.40;91.80;;;;;;8422855;28;20023;-80
2023/08/02 13:42:25;;;;;;;3.45;2.38;;;35.10;82.50;;;;;;8422930;28;20024;-81
2023/08/02 13:46:26;;;;;;;3.35;2.55;;;36.20;82.10;;;;;;8436998;28;20059;-80
2023/08/02 13:50:28;;;;;;;3.75;2.50;;;35.50;80.50;;;;;;8427054;28;20028;-80
2023/08/02 13:54:28;;;;;;;2.90;2.33;;;35.80;80.50;;;;;;8427417;28;20052;-82
2023/08/02 13:58:30;;;;;;;3.35;2.45;;;35.50;83.30;;;;;;8426935;28;20012;-80
2023/08/02 14:02:31;;;;;;;4.40;2.20;;;36.20;79.40;;;;;;8424460;28;20399;-79
2023/08/02 14:06:32;;;;;;;3.85;2.28;;;35.60;81.30;;;;;;8427242;28;20024;-80
2023/08/02 14:10:33;;;;;;;2.60;2.40;;;36.10;76.40;;;;;;8444607;28;20392;-78
2023/08/02 14:14:33;;;;;;;4.30;2.50;;;36.20;80.50;;;;;;8437513;28;20025;-80
2023/08/02 14:18:34;;;;;;;3.13;2.50;;;36.80;76.70;;;;;;8443256;28;20015;-80
2023/08/02 14:22:34;;;;;;;3.97;2.50;;;37.80;75.20;;;;;;8426058;28;20036;-80
2023/08/02 14:26:35;;;;;;;3.03;2.42;;;38.00;73.60;;;;;;8425964;28;20047;-79
2023/08/02 14:30:35;;;;;;;4.18;2.80;;;36.30;75.20;;;;;;8426893;28;20106;-79
2023/08/02 14:34:36;;;;;;;4.07;2.60;;;36.40;75.40;;;;;;8412446;28;20465;-80
2023/08/02 14:38:36;;;;;;;3.17;2.47;;;34.90;76.40;;;;;;8426183;28;20080;-79
2023/08/02 14:42:37;;;;;;;4.55;2.70;;;33.20;80.10;;;;;;8421896;28;20510;-79
2023/08/02 14:46:40;;;;;;;3.85;2.60;;;32.20;81.80;;;;;;8421718;28;20074;-80
2023/08/02 14:50:40;;;;;;;2.97;2.47;;;31.10;87.80;;;;;;8425732;28;20028;-78
2023/08/02 14:54:41;;;;;;;3.67;2.80;;;33.70;80.10;;;;;;8426492;28;20047;-80
2023/08/02 14:58:41;;;;;;;3.95;2.40;;;33.00;79.50;;;;;;8444102;28;20030;-80
2023/08/02 15:02:42;;;;;;;3.22;2.60;;;31.80;88.20;;;;;;8414679;28;20024;-80
2023/08/02 15:06:42;;;;;;;6.03;3.22;;;32.90;85.20;;;;;;8443826;28;20102;-80
2023/08/02 15:10:43;;;;;;;2.95;2.65;;;32.20;87.40;;;;;;8443062;28;20437;-80
2023/08/02 15:14:43;;;;;;;3.97;2.70;;;32.70;88.70;;;;;;8443373;28;20020;-80
2023/08/02 15:18:44;;;;;;;3.50;2.50;;;31.30;86.90;;;;;;8432130;28;20020;-79
2023/08/02 15:22:44;;;;;;;3.92;2.88;;;30.40;91.30;;;;;;8432200;28;20478;-80
2023/08/02 15:26:45;;;;;;;3.25;2.40;;;29.20;93.30;;;;;;8450068;28;20032;-80
2023/08/02 15:30:47;;;;;;;3.53;2.60;;;28.50;95.70;;;;;;8431383;28;20023;-79
2023/08/02 15:34:48;;;;;;;4.07;2.80;;;28.20;95.50;;;;;;8425052;28;20028;-79
2023/08/02 15:38:52;;;;;;;3.55;2.70;;;27.70;97.30;;;;;;8429225;28;20016;-78
2023/08/02 15:42:53;;;;;;;3.47;2.85;;;27.20;97.00;;;;;;8440263;28;20023;-79
2023/08/02 15:46:53;;;;;;;4.32;2.78;;;27.10;96.90;;;;;;8428309;28;20194;-79
2023/08/02 15:50:54;;;;;;;4.53;2.95;;;27.20;98.30;;;;;;8434658;28;20176;-80
2023/08/02 15:54:55;;;;;;;4.32;2.80;;;27.20;99.90;;;;;;8452338;28;20078;-80
2023/08/02 15:58:55;;;;;;;2.67;2.40;;;27.30;99.00;;;;;;8425914;28;20107;-80
2023/08/02 16:02:56;;;;;;;3.40;2.70;;;27.40;98.40;;;;;;8425007;28;20031;-79
2023/08/02 16:06:56;;;;;;;6.53;3.20;;;27.20;98.70;;;;;;8410248;28;20031;-79
2023/08/02 16:10:57;;;;;;;5.05;2.38;;;27.20;98.90;;;;;;8438028;28;20026;-80
2023/08/02 16:14:57;;;;;;;3.75;2.85;;;27.40;98.80;;;;;;8450763;28;20079;-79
2023/08/02 16:18:58;;;;;;;3.50;2.58;;;28.00;98.60;;;;;;8427554;28;20030;-80
2023/08/02 16:22:58;;;;;;;3.55;2.70;;;27.90;98.30;;;;;;8445778;28;20032;-80
2023/08/02 16:26:59;;;;;;;9.65;3.45;;;27.70;98.90;;;;;;8411061;28;20024;-79
2023/08/02 16:31:00;;;;;;;3.00;2.55;;;27.50;99.30;;;;;;8426996;28;20051;-79
2023/08/02 16:35:01;;;;;;;4.15;2.50;;;27.50;99.20;;;;;;8418024;28;20023;-79
2023/08/02 16:39:02;;;;;;;3.83;2.63;;;27.40;99.50;;;;;;8454701;28;20488;-79
2023/08/02 16:43:02;;;;;;;3.65;2.50;;;27.40;98.90;;;;;;8447282;28;20015;-80
2023/08/02 16:47:03;;;;;;;3.72;2.70;;;27.40;99.90;;;;;;8421029;28;20044;-80
2023/08/02 16:51:04;;;;;;;3.28;2.70;;;27.30;99.80;;;;;;8420579;28;20024;-81
2023/08/02 16:55:05;;;;;;;3.00;2.53;;;27.00;99.70;;;;;;8432001;28;20505;-79
2023/08/02 16:59:06;;;;;;;4.30;2.70;;;26.70;99.90;;;;;;8425175;28;20466;-80
2023/08/02 17:03:07;;;;;;;5.95;2.65;;;26.60;99.90;;;;;;8421217;28;20020;-80
2023/08/02 17:07:07;;;;;;;3.45;2.72;;;26.30;99.90;;;;;;8398178;28;20052;-80
2023/08/02 17:11:08;;;;;;;3.65;2.60;;;26.00;99.90;;;;;;8462302;28;20030;-79
2023/08/02 17:15:10;;;;;;;3.47;2.65;;;25.70;99.90;;;;;;8447446;28;20031;-80
2023/08/02 17:19:10;;;;;;;6.25;2.80;;;25.60;99.90;;;;;;8452663;28;20099;-80
2023/08/02 17:23:11;;;;;;;4.32;2.45;;;25.50;99.90;;;;;;8441015;28;20622;-80
2023/08/02 17:27:11;;;;;;;3.90;2.72;;;25.10;99.90;;;;;;8409498;28;20027;-80
2023/08/02 17:31:12;;;;;;;5.78;2.67;;;25.00;99.90;;;;;;8417904;28;20117;-80
2023/08/02 17:35:12;;;;;;;4.13;2.85;;;25.10;99.90;;;;;;8442741;28;20036;-80
2023/08/02 17:39:13;;;;;;;3.42;2.60;;;25.20;99.90;;;;;;8413059;28;20015;-79
2023/08/02 17:43:13;;;;;;;6.03;2.92;;;25.20;99.90;;;;;;8451536;28;20034;-80
2023/08/02 17:47:14;;;;;;;4.72;2.63;;;25.30;99.90;;;;;;8417384;28;20028;-80
2023/08/02 17:51:15;;;;;;;5.13;2.70;;;25.50;99.90;;;;;;8434589;28;20179;-80
2023/08/02 17:55:16;;;;;;;3.78;2.50;;;25.70;99.90;;;;;;8439675;28;20388;-79
2023/08/02 17:59:17;;;;;;;4.18;2.70;;;25.60;99.90;;;;;;8422441;28;20502;-80
2023/08/02 18:03:18;;;;;;;3.92;2.40;;;25.40;99.90;;;;;;8423208;28;20023;-80
2023/08/02 18:07:19;;;;;;;2.95;2.20;;;25.40;99.90;;;;;;8443116;28;20441;-80
2023/08/02 18:11:21;;;;;;;4.65;2.78;;;25.20;99.90;;;;;;8423144;28;20024;-80
2023/08/02 18:15:22;;;;;;;6.25;2.55;;;25.00;99.90;;;;;;8422279;28;20050;-80
2023/08/02 18:19:22;;;;;;;27.05;2.88;;;24.90;99.90;;;;;;8405099;28;20020;-80
2023/08/02 18:23:23;;;;;;;2.92;2.55;;;24.70;99.90;;;;;;8421758;28;20035;-79
2023/08/02 18:27:24;;;;;;;3.47;2.47;;;24.70;99.90;;;;;;8452088;28;20446;-80
2023/08/02 18:31:24;;;;;;;4.00;2.70;;;24.50;99.90;;;;;;8416894;28;20036;-80
2023/08/02 18:35:26;;;;;;;4.53;2.70;;;24.40;99.90;;;;;;8429816;28;20496;-80
2023/08/02 18:39:30;;;;;;;5.57;2.90;;;24.30;99.90;;;;;;8418032;28;20031;-79
2023/08/02 18:43:31;;;;;;;4.88;2.78;;;24.20;99.90;;;;;;8447446;28;20548;-81
2023/08/02 18:47:32;;;;;;;5.13;2.50;;;23.90;99.90;;;;;;8421804;28;20103;-78
2023/08/02 18:51:34;;;;;;;4.00;2.60;;;23.90;99.90;;;;;;8438467;28;20487;-80
2023/08/02 18:55:36;;;;;;;4.93;2.60;;;23.70;99.90;;;;;;8423822;28;20114;-80
2023/08/02 18:59:36;;;;;;;3.88;2.92;;;23.60;99.90;;;;;;8443825;28;20024;-80
2023/08/02 19:03:37;;;;;;;3.63;2.70;;;23.60;99.90;;;;;;8421497;28;20020;-79
2023/08/02 19:07:41;;;;;;;5.50;3.40;;;23.50;99.90;;;;;;8422660;28;20104;-79
2023/08/02 19:11:42;;;;;;;4.82;3.20;;;23.30;99.90;;;;;;8418609;28;20024;-79
2023/08/02 19:15:46;;;;;;;4.75;2.65;;;23.20;99.90;;;;;;8436811;28;20081;-80
2023/08/02 19:19:48;;;;;;;3.78;2.78;;;23.00;99.90;;;;;;8438406;28;20036;-79
2023/08/02 19:23:50;;;;;;;6.10;3.35;;;22.80;99.90;;;;;;8441287;28;20031;-80
2023/08/02 19:27:51;;;;;;;4.13;2.95;;;22.50;99.90;;;;;;8435720;28;20095;-78
2023/08/02 19:31:52;;;;;;;5.72;3.28;;;21.80;99.90;;;;;;8425899;28;20020;-80
2023/08/02 19:35:52;;;;;;;6.10;3.95;;;21.00;99.90;;;;;;8417387;28;20027;-78
2023/08/02 19:39:53;;;;;;;9.23;4.68;;;20.20;99.90;;;;;;8434164;28;20103;-77
2023/08/02 19:43:54;;;;;;;8.75;4.90;;;19.80;99.90;;;;;;8422740;28;20048;-78
2023/08/02 19:47:55;;;;;;;7.43;4.45;;;19.50;99.90;;;;;;8421784;28;20387;-79
2023/08/02 19:51:55;;;;;;;7.65;4.03;;;19.50;99.90;;;;;;8417167;28;20027;-79
2023/08/02 19:55:56;;;;;;;4.80;3.88;;;19.20;99.90;;;;;;8412692;28;20559;-78
2023/08/02 19:59:58;;;;;;;6.90;4.40;;;19.10;99.90;;;;;;8447906;28;20564;-79
2023/08/02 20:04:01;;;;;;;5.90;4.28;;;19.00;99.90;;;;;;8440142;28;20019;-79
2023/08/02 20:08:07;;;;;;;5.47;4.45;;;18.90;99.90;;;;;;8447204;28;20078;-79
2023/08/02 20:12:08;;;;;;;4.53;3.47;;;19.00;99.90;;;;;;8440714;28;20518;-78
2023/08/02 20:16:23;;;;;;;5.32;2.90;;;18.90;99.90;;;;;;8452148;28;20444;-78
2023/08/02 20:20:23;;;;;;;6.40;2.33;;;18.60;99.90;;;;;;8421152;28;20399;-78
2023/08/02 20:24:24;;;;;;;4.50;2.38;;;18.30;99.90;;;;;;8463143;28;20045;-79
2023/08/02 20:28:24;;;;;;;3.35;2.08;;;18.10;99.90;;;;;;8415913;28;20399;-78
2023/08/02 20:32:25;;;;;;;3.28;1.80;;;17.90;99.90;;;;;;8431261;28;20569;-77
2023/08/02 20:36:26;;;;;;;2.65;1.88;;;17.80;99.90;;;;;;8437557;28;20613;-77
2023/08/02 20:40:26;;;;;;;2.42;1.88;;;17.50;99.90;;;;;;8428851;28;20028;-77
2023/08/02 20:44:27;;;;;;;2.95;2.20;;;17.50;99.90;;;;;;8436373;28;20513;-77
2023/08/02 20:48:28;;;;;;;3.58;2.00;;;17.40;99.90;;;;;;8415751;28;20035;-77
2023/08/02 20:52:28;;;;;;;5.93;2.20;;;17.30;99.90;;;;;;8437221;28;20023;-77
2023/08/02 20:56:29;;;;;;;4.25;2.17;;;17.30;99.90;;;;;;8427568;28;20015;-77